Time;durP1;ratioP1;P1;durP2;ratioP2;P2;SDS_P1;SDS_P2;PMS_P1;PMS_P2;Temp;Humidity;BMP_temperature;BMP_pressure;BME280_temperature;BME280_humidity;BME280_pressure;Samples;Min_cycle;Max_cycle;Signal;HPM_P1;HPM_P2
2023/12/17 00:00:43;;;;;;;10.82;6.55;;;;;;;8.66;100.00;103400.16;4913004;28;20408;-78
2023/12/17 00:03:10;;;;;;;13.32;6.97;;;;;;;8.66;100.00;103388.69;4934973;28;20513;-78
2023/12/17 00:05:48;;;;;;;12.20;6.88;;;;;;;8.66;100.00;103394.88;4944454;28;20378;-78
2023/12/17 00:08:19;;;;;;;10.82;6.60;;;;;;;8.66;100.00;103405.41;4890924;29;20063;-77
2023/12/17 00:10:52;;;;;;;12.48;6.82;;;;;;;8.65;100.00;103410.56;4911377;28;20047;-77
2023/12/17 00:13:19;;;;;;;11.80;6.35;;;;;;;8.65;100.00;103406.22;4911659;29;20066;-78
2023/12/17 00:15:47;;;;;;;11.35;5.75;;;;;;;8.65;100.00;103398.31;4901749;29;20047;-79
2023/12/17 00:18:14;;;;;;;13.23;6.03;;;;;;;8.64;100.00;103391.28;4938821;28;20063;-80
2023/12/17 00:20:42;;;;;;;11.75;7.05;;;;;;;8.65;100.00;103402.69;4908221;29;20413;-78
2023/12/17 00:23:10;;;;;;;15.13;6.00;;;;;;;8.64;100.00;103398.25;4942073;28;20047;-79
2023/12/17 00:25:37;;;;;;;14.25;6.38;;;;;;;8.64;100.00;103392.97;4937955;28;20046;-78
2023/12/17 00:28:04;;;;;;;15.90;6.85;;;;;;;8.61;100.00;103383.22;4901804;29;20059;-80
2023/12/17 00:30:31;;;;;;;13.10;5.47;;;;;;;8.64;100.00;103395.59;4890454;28;20055;-79
2023/12/17 00:32:59;;;;;;;16.98;7.13;;;;;;;8.62;100.00;103395.56;4923051;29;20532;-79
2023/12/17 00:35:27;;;;;;;11.55;7.05;;;;;;;8.62;100.00;103392.00;4900331;29;20679;-78
2023/12/17 00:37:54;;;;;;;18.70;7.88;;;;;;;8.62;100.00;103413.03;4916701;29;20409;-77
2023/12/17 00:40:21;;;;;;;12.38;7.05;;;;;;;8.62;100.00;103418.28;4892719;29;20452;-79
2023/12/17 00:42:49;;;;;;;11.30;6.05;;;;;;;8.62;100.00;103413.03;4947899;29;20056;-79
2023/12/17 00:45:16;;;;;;;9.80;5.72;;;;;;;8.62;100.00;103428.81;4861989;28;20055;-79
2023/12/17 00:47:44;;;;;;;10.32;5.20;;;;;;;8.61;100.00;103427.00;4907755;29;20062;-77
2023/12/17 00:50:11;;;;;;;11.55;6.25;;;;;;;8.62;100.00;103427.09;4933585;28;20062;-79
2023/12/17 00:52:39;;;;;;;11.38;6.28;;;;;;;8.61;100.00;103427.91;4957370;28;20099;-79
2023/12/17 00:55:07;;;;;;;15.07;7.13;;;;;;;8.61;100.00;103430.53;4927889;29;20036;-78
2023/12/17 00:57:35;;;;;;;9.65;6.00;;;;;;;8.62;100.00;103434.06;4929646;29;20058;-80
2023/12/17 01:00:03;;;;;;;12.25;6.25;;;;;;;8.61;100.00;103432.28;4885710;29;20366;-78
2023/12/17 01:02:31;;;;;;;12.02;5.97;;;;;;;8.59;100.00;103425.19;4907870;29;20062;-79
2023/12/17 01:04:58;;;;;;;10.88;5.55;;;;;;;8.61;100.00;103422.66;4916991;29;20523;-77
2023/12/17 01:07:25;;;;;;;14.88;6.00;;;;;;;8.61;100.00;103429.63;4917301;29;20962;-79
2023/12/17 01:09:53;;;;;;;12.75;6.22;;;;;;;8.60;100.00;103415.59;4909708;29;20058;-78
2023/12/17 01:12:20;;;;;;;8.48;5.63;;;;;;;8.59;100.00;103406.78;4933483;29;20428;-78
2023/12/17 01:14:48;;;;;;;9.30;6.43;;;;;;;8.61;100.00;103409.50;4917070;29;20062;-78
2023/12/17 01:17:15;;;;;;;12.68;6.45;;;;;;;8.59;100.00;103412.03;4862216;29;20070;-78
2023/12/17 01:19:43;;;;;;;10.18;5.50;;;;;;;8.60;100.00;103412.97;4901823;29;20848;-78
2023/12/17 01:22:11;;;;;;;12.30;6.03;;;;;;;8.61;100.00;103427.00;4951325;29;20055;-78
2023/12/17 01:24:41;;;;;;;11.00;5.93;;;;;;;8.62;100.00;103423.53;4905744;28;20502;-78
2023/12/17 01:27:08;;;;;;;14.55;6.18;;;;;;;8.61;100.00;103420.03;4933515;29;20054;-78
2023/12/17 01:29:36;;;;;;;8.82;5.55;;;;;;;8.62;100.00;103418.28;4928021;29;20494;-77
2023/12/17 01:32:04;;;;;;;11.82;5.90;;;;;;;8.62;100.00;103420.91;4866580;29;20054;-79
2023/12/17 01:34:31;;;;;;;13.88;5.70;;;;;;;8.62;100.00;103419.22;4901400;29;20054;-77
2023/12/17 01:36:59;;;;;;;10.50;6.65;;;;;;;8.64;100.00;103414.00;4916802;29;20044;-77
2023/12/17 01:39:26;;;;;;;12.48;6.03;;;;;;;8.63;100.00;103425.38;4885896;29;20051;-79
2023/12/17 01:41:53;;;;;;;8.55;5.13;;;;;;;8.64;100.00;103424.53;4892803;29;20050;-79
2023/12/17 01:44:22;;;;;;;9.35;4.93;;;;;;;8.64;100.00;103417.56;4914521;29;20058;-77
2023/12/17 01:46:49;;;;;;;10.73;5.45;;;;;;;8.64;100.00;103424.53;4873855;29;20043;-78
2023/12/17 01:49:17;;;;;;;10.57;5.85;;;;;;;8.64;100.00;103427.16;4916863;29;20043;-78
2023/12/17 01:51:44;;;;;;;13.13;4.85;;;;;;;8.64;100.00;103424.53;4873285;29;20051;-77
2023/12/17 01:54:12;;;;;;;5.82;4.70;;;;;;;8.64;100.00;103427.16;4931381;29;20136;-78
2023/12/17 01:56:39;;;;;;;11.90;5.63;;;;;;;8.65;100.00;103435.13;4923657;29;20051;-78
2023/12/17 01:59:07;;;;;;;9.85;5.82;;;;;;;8.65;100.00;103439.50;4913796;29;20051;-78
2023/12/17 02:01:35;;;;;;;13.45;6.75;;;;;;;8.64;100.00;103438.59;4906610;29;20039;-78
2023/12/17 02:04:06;;;;;;;10.48;6.18;;;;;;;8.65;100.00;103439.50;4903099;29;20056;-78
2023/12/17 02:06:33;;;;;;;10.90;5.32;;;;;;;8.67;100.00;103437.84;4958176;28;20448;-78
2023/12/17 02:09:01;;;;;;;10.23;6.03;;;;;;;8.66;100.00;103433.38;4961933;28;20062;-77
2023/12/17 02:11:29;;;;;;;8.68;6.05;;;;;;;8.65;100.00;103431.59;4948605;29;20051;-78
2023/12/17 02:13:57;;;;;;;10.85;5.80;;;;;;;8.67;100.00;103432.59;4884582;29;20393;-78
2023/12/17 02:16:24;;;;;;;11.15;5.65;;;;;;;8.67;100.00;103430.84;4902142;28;20058;-78
2023/12/17 02:18:51;;;;;;;8.93;5.72;;;;;;;8.68;100.00;103432.66;4892182;29;20050;-77
2023/12/17 02:21:19;;;;;;;12.20;5.97;;;;;;;8.68;100.00;103431.78;4931955;29;20043;-78
2023/12/17 02:23:47;;;;;;;11.30;5.93;;;;;;;8.68;100.00;103437.03;4933262;29;20066;-78
2023/12/17 02:26:17;;;;;;;8.95;5.47;;;;;;;8.68;100.00;103443.19;4914960;29;20054;-78
2023/12/17 02:28:45;;;;;;;16.48;6.80;;;;;;;8.69;100.00;103444.97;4939651;29;20040;-78
2023/12/17 02:31:13;;;;;;;15.82;6.75;;;;;;;8.69;100.00;103431.81;4856117;28;20058;-77
2023/12/17 02:33:40;;;;;;;11.20;5.82;;;;;;;8.68;100.00;103435.28;4925411;29;20054;-78
2023/12/17 02:36:09;;;;;;;9.30;5.68;;;;;;;8.69;100.00;103441.44;4898180;29;20047;-78
2023/12/17 02:38:36;;;;;;;10.48;5.10;;;;;;;8.68;100.00;103426.53;4933412;29;20047;-78
2023/12/17 02:41:04;;;;;;;7.40;4.10;;;;;;;8.68;100.00;103419.53;4930494;29;20066;-78
2023/12/17 02:43:32;;;;;;;12.32;6.18;;;;;;;8.68;100.00;103416.00;4932196;29;20047;-78
2023/12/17 02:45:59;;;;;;;7.07;5.78;;;;;;;8.69;100.00;103413.44;4939101;29;20050;-78
2023/12/17 02:48:27;;;;;;;10.23;4.80;;;;;;;8.69;100.00;103416.06;4858094;29;20043;-79
2023/12/17 02:50:54;;;;;;;14.63;5.38;;;;;;;8.70;100.00;103406.47;4940145;28;20059;-78
2023/12/17 02:53:22;;;;;;;7.43;5.43;;;;;;;8.70;100.00;103402.09;4914827;29;20673;-78
2023/12/17 02:55:49;;;;;;;9.27;5.60;;;;;;;8.70;100.00;103410.00;4898541;29;20058;-78
2023/12/17 02:58:16;;;;;;;7.72;5.40;;;;;;;8.72;100.00;103410.06;4930339;29;20055;-78
2023/12/17 03:00:44;;;;;;;17.70;7.53;;;;;;;8.71;100.00;103408.25;4940819;29;20054;-77
2023/12/17 03:03:11;;;;;;;10.60;5.05;;;;;;;8.72;100.00;103417.97;4835410;29;20055;-78
2023/12/17 03:05:39;;;;;;;10.40;5.80;;;;;;;8.72;100.00;103404.81;4916481;29;20051;-78
2023/12/17 03:08:06;;;;;;;12.25;5.35;;;;;;;8.72;100.00;103396.94;4928533;29;20436;-78
2023/12/17 03:10:34;;;;;;;9.65;5.75;;;;;;;8.72;100.00;103396.94;4884936;29;20063;-78
2023/12/17 03:13:01;;;;;;;8.68;5.38;;;;;;;8.74;100.00;103400.53;4911328;29;20056;-78
2023/12/17 03:15:30;;;;;;;8.88;5.53;;;;;;;8.74;100.00;103392.66;4902041;29;20062;-78
2023/12/17 03:17:59;;;;;;;12.23;5.43;;;;;;;8.74;100.00;103400.53;4882732;29;20051;-77
2023/12/17 03:20:27;;;;;;;8.50;5.13;;;;;;;8.76;100.00;103404.16;4917452;29;20054;-78
2023/12/17 03:22:54;;;;;;;12.25;4.63;;;;;;;8.74;100.00;103401.44;4930672;29;20058;-78
2023/12/17 03:25:22;;;;;;;8.65;4.82;;;;;;;8.74;100.00;103398.81;4931250;29;20040;-78
2023/12/17 03:27:49;;;;;;;9.68;5.00;;;;;;;8.76;100.00;103404.16;4946624;29;20489;-78
2023/12/17 03:30:17;;;;;;;8.25;4.53;;;;;;;8.75;100.00;103394.44;4934524;29;20553;-78
2023/12/17 03:32:45;;;;;;;6.70;4.97;;;;;;;8.74;100.00;103393.53;4875594;29;20058;-78
2023/12/17 03:35:13;;;;;;;11.88;5.35;;;;;;;8.76;100.00;103394.53;4934786;29;20059;-78
2023/12/17 03:37:40;;;;;;;9.82;5.43;;;;;;;8.76;100.00;103380.47;4948845;29;20047;-78
2023/12/17 03:40:08;;;;;;;9.82;4.53;;;;;;;8.75;100.00;103381.28;4945358;29;20047;-78
2023/12/17 03:42:36;;;;;;;12.93;4.75;;;;;;;8.72;100.00;103371.53;4932096;29;20047;-79
2023/12/17 03:45:04;;;;;;;14.23;5.18;;;;;;;8.73;100.00;103367.16;4922407;29;20051;-80
2023/12/17 03:47:31;;;;;;;11.43;4.82;;;;;;;8.73;100.00;103373.34;4899881;29;20056;-77
2023/12/17 03:49:59;;;;;;;7.40;4.82;;;;;;;8.72;100.00;103370.63;4880341;29;20055;-77
2023/12/17 03:52:26;;;;;;;7.32;4.13;;;;;;;8.72;100.00;103366.28;4944404;29;20474;-77
2023/12/17 03:54:53;;;;;;;13.90;4.80;;;;;;;8.72;100.00;103370.63;4899109;29;20447;-78
2023/12/17 03:57:21;;;;;;;12.27;4.35;;;;;;;8.71;100.00;103360.94;4897842;29;20051;-78
2023/12/17 03:59:48;;;;;;;5.75;4.03;;;;;;;8.70;100.00;103365.28;4914632;29;20062;-77
2023/12/17 04:02:16;;;;;;;9.18;5.05;;;;;;;8.69;100.00;103368.75;4918680;29;20043;-79
2023/12/17 04:04:43;;;;;;;11.85;5.32;;;;;;;8.70;100.00;103377.56;4906351;29;20044;-79
2023/12/17 04:07:11;;;;;;;12.25;4.38;;;;;;;8.70;100.00;103372.28;4936436;28;20493;-80
2023/12/17 04:09:39;;;;;;;11.02;5.05;;;;;;;8.68;100.00;103368.69;4946193;29;20172;-79
2023/12/17 04:12:06;;;;;;;11.30;5.47;;;;;;;8.68;100.00;103372.22;4943625;29;20062;-77
2023/12/17 04:14:34;;;;;;;11.23;5.05;;;;;;;8.68;100.00;103372.22;4915485;29;20059;-77
2023/12/17 04:17:01;;;;;;;8.10;4.60;;;;;;;8.68;100.00;103366.06;4903832;29;20043;-77
2023/12/17 04:19:29;;;;;;;6.13;4.40;;;;;;;8.69;100.00;103362.59;4890286;29;20047;-78
2023/12/17 04:21:56;;;;;;;6.43;4.53;;;;;;;8.68;100.00;103356.44;4920983;29;20497;-77
2023/12/17 04:24:24;;;;;;;9.13;4.93;;;;;;;8.68;100.00;103366.06;4946942;29;20058;-78
2023/12/17 04:26:51;;;;;;;7.70;4.80;;;;;;;8.68;100.00;103363.44;4930460;29;20043;-77
2023/12/17 04:29:19;;;;;;;11.90;5.22;;;;;;;8.68;100.00;103366.06;4911908;29;20432;-77
2023/12/17 04:31:47;;;;;;;12.75;6.07;;;;;;;8.68;100.00;103371.31;4902471;29;20058;-77
2023/12/17 04:34:14;;;;;;;10.52;5.50;;;;;;;8.67;100.00;103366.88;4877314;28;21130;-78
2023/12/17 04:36:42;;;;;;;9.32;4.78;;;;;;;8.67;100.00;103357.25;4899710;29;20055;-77
2023/12/17 04:39:10;;;;;;;7.82;5.05;;;;;;;8.67;100.00;103349.34;4919476;29;20054;-79
2023/12/17 04:41:39;;;;;;;8.57;5.07;;;;;;;8.66;100.00;103358.09;4946842;29;20051;-79
2023/12/17 04:44:07;;;;;;;7.75;5.00;;;;;;;8.66;100.00;103358.09;4924443;29;20058;-78
2023/12/17 04:46:35;;;;;;;8.25;5.18;;;;;;;8.66;100.00;103349.28;4929957;29;20101;-79
2023/12/17 04:49:03;;;;;;;13.43;5.10;;;;;;;8.65;100.00;103342.22;4919881;29;20052;-78
2023/12/17 04:51:37;;;;;;;10.45;5.32;;;;;;;8.63;100.00;103339.50;4883323;29;20409;-78
2023/12/17 04:54:09;;;;;;;11.75;5.53;;;;;;;8.62;100.00;103329.84;4921489;29;20047;-78
2023/12/17 04:56:37;;;;;;;9.20;5.38;;;;;;;8.60;100.00;103342.00;4934960;29;20484;-78
2023/12/17 04:59:04;;;;;;;9.40;5.88;;;;;;;8.60;100.00;103328.88;4916706;29;20051;-77
2023/12/17 05:01:31;;;;;;;12.05;7.38;;;;;;;8.58;100.00;103333.13;4926193;29;20051;-78
2023/12/17 05:03:59;;;;;;;14.32;6.55;;;;;;;8.58;100.00;103335.75;4938237;28;20047;-77
2023/12/17 05:06:27;;;;;;;12.95;6.50;;;;;;;8.57;100.00;103341.84;4858988;29;20039;-78
2023/12/17 05:08:54;;;;;;;13.88;6.50;;;;;;;8.55;100.00;103340.88;4930609;29;20039;-77
2023/12/17 05:11:25;;;;;;;11.70;7.07;;;;;;;8.54;100.00;103346.94;4900833;29;20062;-78
2023/12/17 05:13:52;;;;;;;14.57;7.57;;;;;;;8.53;100.00;103351.28;4914971;29;20051;-77
2023/12/17 05:16:20;;;;;;;12.65;6.38;;;;;;;8.55;100.00;103361.88;4929553;29;20063;-77
2023/12/17 05:18:47;;;;;;;14.63;7.70;;;;;;;8.54;100.00;103358.38;4919029;29;20504;-78
2023/12/17 05:21:15;;;;;;;12.55;7.60;;;;;;;8.54;100.00;103358.38;4905842;29;20523;-78
2023/12/17 05:23:43;;;;;;;11.20;7.50;;;;;;;8.53;100.00;103353.91;4882520;29;20050;-78
2023/12/17 05:26:10;;;;;;;11.23;6.78;;;;;;;8.53;100.00;103356.53;4879216;29;20059;-78
2023/12/17 05:28:41;;;;;;;17.02;7.72;;;;;;;8.53;100.00;103361.81;4924253;29;20066;-78
2023/12/17 05:31:09;;;;;;;14.90;7.70;;;;;;;8.54;100.00;103362.69;4913334;29;20058;-78
2023/12/17 05:33:37;;;;;;;14.38;7.93;;;;;;;8.53;100.00;103361.81;4949283;29;20429;-78
2023/12/17 05:36:05;;;;;;;13.98;8.25;;;;;;;8.53;100.00;103358.28;4936120;29;20052;-78
2023/12/17 05:38:32;;;;;;;12.85;7.20;;;;;;;8.53;100.00;103350.41;4890329;29;20493;-77
2023/12/17 05:41:00;;;;;;;13.23;7.70;;;;;;;8.52;100.00;103353.84;4904174;29;20058;-78
2023/12/17 05:43:27;;;;;;;14.57;7.90;;;;;;;8.50;100.00;103345.88;4914551;29;20063;-78
2023/12/17 05:45:55;;;;;;;9.73;7.07;;;;;;;8.51;100.00;103341.53;4914883;29;20047;-79
2023/12/17 05:48:26;;;;;;;12.90;7.68;;;;;;;8.48;100.00;103347.50;4915768;29;20059;-79
2023/12/17 05:50:54;;;;;;;10.77;6.68;;;;;;;8.47;100.00;103356.22;4907557;29;20484;-79
2023/12/17 05:53:21;;;;;;;13.93;7.75;;;;;;;8.47;100.00;103361.50;4873422;28;20059;-78
2023/12/17 05:56:00;;;;;;;13.50;7.32;;;;;;;8.46;100.00;103359.66;4922074;29;20040;-78
2023/12/17 05:58:27;;;;;;;12.50;7.25;;;;;;;8.45;100.00;103356.97;4919047;29;20050;-78
2023/12/17 06:00:56;;;;;;;14.63;7.32;;;;;;;8.41;100.00;103353.22;4950037;28;20043;-78
2023/12/17 06:03:23;;;;;;;11.15;7.03;;;;;;;8.39;100.00;103344.38;4929434;28;20064;-78
2023/12/17 06:05:51;;;;;;;15.48;7.20;;;;;;;8.34;100.00;103345.88;4925854;29;20051;-78
2023/12/17 06:08:18;;;;;;;15.18;7.97;;;;;;;8.32;100.00;103345.78;4863431;28;20517;-78
2023/12/17 06:10:46;;;;;;;12.45;6.90;;;;;;;8.29;100.00;103356.13;4892707;29;20394;-78
2023/12/17 06:13:13;;;;;;;19.15;8.70;;;;;;;8.30;100.00;103352.69;4913275;29;20055;-78
2023/12/17 06:15:41;;;;;;;17.33;8.48;;;;;;;8.28;100.00;103356.97;4931858;29;20039;-79
2023/12/17 06:18:08;;;;;;;12.35;7.65;;;;;;;8.29;100.00;103355.22;4928164;29;20047;-78
2023/12/17 06:20:36;;;;;;;15.50;8.27;;;;;;;8.26;100.00;103348.09;4900056;29;20066;-78
2023/12/17 06:23:04;;;;;;;17.77;8.98;;;;;;;8.27;100.00;103343.75;4909428;29;20479;-78
2023/12/17 06:25:32;;;;;;;15.85;8.32;;;;;;;8.25;100.00;103337.50;4889097;29;20055;-78
2023/12/17 06:27:59;;;;;;;13.02;8.35;;;;;;;8.26;100.00;103344.56;4913576;29;20535;-78
2023/12/17 06:30:26;;;;;;;13.73;7.90;;;;;;;8.24;100.00;103344.50;4913885;29;20062;-78
2023/12/17 06:32:54;;;;;;;11.43;8.10;;;;;;;8.25;100.00;103348.03;4914453;29;20055;-78
2023/12/17 06:35:21;;;;;;;16.92;7.90;;;;;;;8.25;100.00;103348.03;4913055;29;20062;-78
2023/12/17 06:37:49;;;;;;;15.32;8.10;;;;;;;8.23;100.00;103341.78;4920333;29;20404;-78
2023/12/17 06:40:16;;;;;;;14.02;8.30;;;;;;;8.24;100.00;103335.69;4900349;28;20055;-79
2023/12/17 06:42:44;;;;;;;13.13;8.57;;;;;;;8.24;100.00;103331.38;4899302;29;20412;-78
2023/12/17 06:45:11;;;;;;;16.85;8.95;;;;;;;8.24;100.00;103327.81;4928804;29;20502;-78
2023/12/17 06:47:39;;;;;;;16.70;9.57;;;;;;;8.25;100.00;103333.16;4915033;29;20055;-78
2023/12/17 06:50:07;;;;;;;15.27;10.00;;;;;;;8.24;100.00;103335.69;4904152;29;20055;-79
2023/12/17 06:52:35;;;;;;;21.48;10.98;;;;;;;8.24;100.00;103341.88;4921999;29;20095;-78
2023/12/17 06:55:03;;;;;;;15.15;10.15;;;;;;;8.24;100.00;103341.88;4896227;29;20059;-78
2023/12/17 06:57:31;;;;;;;19.73;11.45;;;;;;;8.24;100.00;103349.75;4905182;29;20040;-78
2023/12/17 06:59:58;;;;;;;14.52;10.98;;;;;;;8.24;100.00;103343.56;4929651;29;20082;-77
2023/12/17 07:02:26;;;;;;;17.70;10.27;;;;;;;8.24;100.00;103331.38;4912950;29;20058;-79
2023/12/17 07:04:53;;;;;;;17.67;9.68;;;;;;;8.24;100.00;103335.69;4898812;29;20058;-78
2023/12/17 07:07:20;;;;;;;14.70;9.27;;;;;;;8.23;100.00;103331.28;4871736;29;20055;-79
2023/12/17 07:09:48;;;;;;;18.15;9.20;;;;;;;8.22;100.00;103347.84;4899671;29;20467;-78
2023/12/17 07:12:15;;;;;;;15.07;9.35;;;;;;;8.21;100.00;103333.81;4891779;29;20047;-78
2023/12/17 07:14:43;;;;;;;18.17;9.30;;;;;;;8.20;100.00;103340.81;4933819;29;20055;-78
2023/12/17 07:17:11;;;;;;;13.80;8.38;;;;;;;8.20;100.00;103345.13;4879876;29;20053;-78
2023/12/17 07:19:38;;;;;;;14.45;8.68;;;;;;;8.18;100.00;103346.78;4915639;29;20047;-78
2023/12/17 07:22:06;;;;;;;14.40;8.57;;;;;;;8.19;100.00;103346.88;4911514;29;20047;-79
2023/12/17 07:24:34;;;;;;;18.33;8.45;;;;;;;8.19;100.00;103338.09;4906119;29;20420;-78
2023/12/17 07:27:02;;;;;;;15.95;7.75;;;;;;;8.19;100.00;103343.34;4835673;29;20067;-78
2023/12/17 07:29:29;;;;;;;9.60;7.45;;;;;;;8.18;100.00;103337.19;4921679;29;20062;-78
2023/12/17 07:31:57;;;;;;;17.48;7.45;;;;;;;8.18;100.00;103331.00;4929624;29;20110;-78
2023/12/17 07:34:24;;;;;;;9.90;6.90;;;;;;;8.18;100.00;103331.94;4912711;29;20044;-79
2023/12/17 07:36:52;;;;;;;11.70;7.05;;;;;;;8.17;100.00;103329.22;4937608;29;20059;-79
2023/12/17 07:39:19;;;;;;;13.75;6.97;;;;;;;8.16;100.00;103341.44;4924834;29;20043;-79
2023/12/17 07:41:47;;;;;;;16.77;6.85;;;;;;;8.16;100.00;103341.44;4915244;29;20051;-78
2023/12/17 07:44:17;;;;;;;14.32;6.10;;;;;;;8.16;100.00;103349.31;4895234;29;20062;-79
2023/12/17 07:46:45;;;;;;;15.13;6.63;;;;;;;8.17;100.00;103352.88;4915104;29;20055;-79
2023/12/17 07:49:12;;;;;;;12.10;5.97;;;;;;;8.17;100.00;103348.50;4912058;29;20047;-77
2023/12/17 07:51:40;;;;;;;9.63;5.50;;;;;;;8.17;100.00;103343.25;4911618;29;20052;-78
2023/12/17 07:54:07;;;;;;;14.73;6.95;;;;;;;8.17;100.00;103342.38;4923758;29;20051;-79
2023/12/17 07:56:35;;;;;;;10.25;6.30;;;;;;;8.15;100.00;103331.78;4903671;29;20062;-77
2023/12/17 07:59:02;;;;;;;17.38;6.82;;;;;;;8.17;100.00;103337.09;4870076;29;20055;-78
2023/12/17 08:01:31;;;;;;;12.63;6.75;;;;;;;8.17;100.00;103335.38;4945421;29;20055;-79
2023/12/17 08:03:58;;;;;;;14.52;7.10;;;;;;;8.17;100.00;103334.47;4944608;29;20067;-79
2023/12/17 08:06:26;;;;;;;19.15;7.55;;;;;;;8.17;100.00;103342.38;4914281;29;20050;-77
2023/12/17 08:08:54;;;;;;;13.18;7.57;;;;;;;8.17;100.00;103345.88;4911920;29;20055;-77
2023/12/17 08:11:22;;;;;;;18.80;8.73;;;;;;;8.16;100.00;103338.81;4921437;29;20051;-77
2023/12/17 08:13:56;;;;;;;14.73;7.72;;;;;;;8.17;100.00;103339.72;4872374;29;20508;-79
2023/12/17 08:16:23;;;;;;;18.80;9.20;;;;;;;8.16;100.00;103337.91;4887861;29;20135;-78
2023/12/17 08:18:51;;;;;;;15.50;7.85;;;;;;;8.18;100.00;103338.91;4937392;29;20051;-79
2023/12/17 08:21:18;;;;;;;17.55;7.43;;;;;;;8.17;100.00;103337.09;4869993;29;20047;-78
2023/12/17 08:23:46;;;;;;;14.95;8.30;;;;;;;8.17;100.00;103332.75;4913460;29;20058;-78
2023/12/17 08:26:13;;;;;;;19.85;8.35;;;;;;;8.17;100.00;103332.75;4878871;29;20058;-79
2023/12/17 08:28:41;;;;;;;26.05;8.35;;;;;;;8.16;100.00;103327.41;4881627;29;20778;-78
2023/12/17 08:31:09;;;;;;;14.77;7.70;;;;;;;8.16;100.00;103332.66;4887741;29;20055;-78
2023/12/17 08:33:38;;;;;;;19.48;8.65;;;;;;;8.15;100.00;103321.25;4915345;29;20051;-78
2023/12/17 08:36:08;;;;;;;12.00;7.38;;;;;;;8.16;100.00;103322.16;4934389;29;20046;-78
2023/12/17 08:38:36;;;;;;;18.10;7.65;;;;;;;8.16;100.00;103316.91;4898746;29;20058;-78
2023/12/17 08:41:04;;;;;;;18.55;7.88;;;;;;;8.15;100.00;103325.63;4913312;29;20152;-79
2023/12/17 08:43:33;;;;;;;16.75;7.85;;;;;;;8.14;100.00;103322.06;4882059;29;20051;-79
2023/12/17 08:46:01;;;;;;;15.68;7.55;;;;;;;8.16;100.00;103328.31;4902491;28;20532;-79
2023/12/17 08:48:29;;;;;;;17.05;8.93;;;;;;;8.18;100.00;103320.50;4925106;29;20479;-78
2023/12/17 08:50:57;;;;;;;15.73;8.98;;;;;;;8.19;100.00;103310.09;4908081;29;20390;-77
2023/12/17 08:53:26;;;;;;;12.50;8.20;;;;;;;8.19;100.00;103320.59;4913087;29;20055;-78
2023/12/17 08:55:53;;;;;;;14.02;7.40;;;;;;;8.20;100.00;103316.22;4923822;28;20050;-78
2023/12/17 08:58:21;;;;;;;21.13;9.35;;;;;;;8.21;100.00;103318.06;4876547;29;20409;-78
2023/12/17 09:00:49;;;;;;;14.70;8.18;;;;;;;8.22;100.00;103318.94;4894112;28;20035;-79
2023/12/17 09:03:18;;;;;;;18.38;8.30;;;;;;;8.24;100.00;103309.41;4928985;29;20054;-78
2023/12/17 09:05:46;;;;;;;15.27;8.27;;;;;;;8.23;100.00;103311.16;4904553;29;20047;-80
2023/12/17 09:08:13;;;;;;;14.95;8.85;;;;;;;8.26;100.00;103310.41;4904298;29;20055;-78
2023/12/17 09:10:41;;;;;;;17.75;10.20;;;;;;;8.28;100.00;103316.63;4879691;29;20677;-78
2023/12/17 09:13:09;;;;;;;16.48;8.77;;;;;;;8.29;100.00;103324.59;4903223;29;20082;-79
2023/12/17 09:15:38;;;;;;;17.40;9.55;;;;;;;8.29;100.00;103321.97;4891293;29;21052;-78
2023/12/17 09:18:06;;;;;;;21.98;10.02;;;;;;;8.33;100.00;103307.28;4933002;29;20058;-78
2023/12/17 09:20:33;;;;;;;16.48;9.25;;;;;;;8.35;100.00;103322.28;4927206;29;20063;-78
2023/12/17 09:23:02;;;;;;;20.75;8.95;;;;;;;8.37;100.00;103318.03;4902444;29;20051;-78
2023/12/17 09:25:31;;;;;;;17.98;9.52;;;;;;;8.39;100.00;103316.38;4912712;29;20058;-78
2023/12/17 09:27:58;;;;;;;13.15;9.30;;;;;;;8.41;100.00;103321.69;4910768;29;20047;-78
2023/12/17 09:30:26;;;;;;;14.27;8.75;;;;;;;8.42;100.00;103310.41;4914562;29;20051;-78
2023/12/17 09:32:54;;;;;;;21.40;10.45;;;;;;;8.45;100.00;103317.53;4854856;29;20058;-78
2023/12/17 09:35:25;;;;;;;16.77;10.57;;;;;;;8.47;100.00;103302.75;4911264;29;20052;-78
2023/12/17 09:37:52;;;;;;;14.60;10.02;;;;;;;8.49;100.00;103317.78;4916824;29;20055;-78
2023/12/17 09:40:20;;;;;;;20.35;10.90;;;;;;;8.51;100.00;103308.25;4891603;29;20044;-78
2023/12/17 09:42:52;;;;;;;22.73;11.63;;;;;;;8.52;100.00;103311.78;4910810;29;20051;-79
2023/12/17 09:45:20;;;;;;;26.02;13.10;;;;;;;8.52;100.00;103302.16;4904261;29;20067;-79
2023/12/17 09:47:48;;;;;;;22.08;12.90;;;;;;;8.51;100.00;103310.88;4859019;29;20050;-79
2023/12/17 09:50:15;;;;;;;25.95;15.15;;;;;;;8.50;100.00;103309.06;4923250;29;20425;-79
2023/12/17 09:52:43;;;;;;;26.05;13.52;;;;;;;8.50;100.00;103301.19;4929950;29;20051;-79
2023/12/17 09:55:11;;;;;;;27.05;15.80;;;;;;;8.51;100.00;103304.75;4922350;29;20051;-77
2023/12/17 09:57:38;;;;;;;26.90;14.98;;;;;;;8.51;100.00;103310.88;4914056;29;20393;-79
2023/12/17 10:00:10;;;;;;;25.90;15.55;;;;;;;8.54;100.00;103299.63;4920335;29;20058;-80
2023/12/17 10:02:41;;;;;;;31.50;15.10;;;;;;;8.54;100.00;103297.00;4886870;29;20055;-77
2023/12/17 10:05:09;;;;;;;30.25;15.93;;;;;;;8.55;100.00;103304.97;4923190;29;20047;-77
2023/12/17 10:07:38;;;;;;;37.35;16.30;;;;;;;8.55;100.00;103304.97;4928267;29;20062;-78
2023/12/17 10:10:07;;;;;;;29.27;15.85;;;;;;;8.59;100.00;103301.66;4921411;29;20059;-77
2023/12/17 10:12:35;;;;;;;27.02;13.90;;;;;;;8.59;100.00;103300.75;4931156;29;20082;-78
2023/12/17 10:15:05;;;;;;;27.85;14.20;;;;;;;8.61;100.00;103303.47;4906085;29;20070;-78
2023/12/17 10:17:32;;;;;;;30.27;13.48;;;;;;;8.62;100.00;103297.38;4927893;29;20044;-78
2023/12/17 10:20:00;;;;;;;26.30;13.80;;;;;;;8.64;100.00;103285.22;4882061;28;20497;-78
2023/12/17 10:22:28;;;;;;;24.30;11.02;;;;;;;8.65;100.00;103280.03;4890456;28;20046;-78
2023/12/17 10:24:56;;;;;;;21.52;11.50;;;;;;;8.68;100.00;103284.56;4935638;29;20397;-79
2023/12/17 10:27:23;;;;;;;22.95;12.48;;;;;;;8.71;100.00;103280.34;4898668;29;20062;-78
2023/12/17 10:29:52;;;;;;;29.10;11.68;;;;;;;8.70;100.00;103286.44;4917039;29;20051;-78
2023/12/17 10:32:24;;;;;;;28.83;12.10;;;;;;;8.71;100.00;103280.34;4923108;29;20048;-77
2023/12/17 10:34:53;;;;;;;27.98;12.43;;;;;;;8.75;100.00;103276.13;4847380;29;20043;-79
2023/12/17 10:37:25;;;;;;;25.80;11.73;;;;;;;8.75;100.00;103273.50;4904911;29;20047;-79
2023/12/17 10:39:54;;;;;;;26.65;12.45;;;;;;;8.75;100.00;103263.91;4899397;29;20051;-78
2023/12/17 10:42:24;;;;;;;27.52;12.60;;;;;;;8.75;100.00;103247.22;4927744;29;20043;-79
2023/12/17 10:44:55;;;;;;;21.67;12.23;;;;;;;8.77;100.00;103246.50;4932939;29;20062;-79
2023/12/17 10:47:24;;;;;;;25.75;11.57;;;;;;;8.75;100.00;103241.97;4925622;29;20476;-79
2023/12/17 10:49:53;;;;;;;22.98;11.43;;;;;;;8.78;100.00;103252.63;4917683;29;20074;-79
2023/12/17 10:52:24;;;;;;;24.67;10.85;;;;;;;8.76;100.00;103238.50;4870226;29;20051;-78
2023/12/17 10:54:52;;;;;;;23.40;10.38;;;;;;;8.77;100.00;103227.16;4931311;29;20051;-79
2023/12/17 10:57:24;;;;;;;24.92;11.02;;;;;;;8.77;100.00;103235.03;4926834;29;20051;-77
2023/12/17 10:59:54;;;;;;;21.73;12.95;;;;;;;8.77;100.00;103229.78;4937842;29;20043;-77
2023/12/17 11:02:24;;;;;;;19.85;11.70;;;;;;;8.77;100.00;103232.41;4922389;28;20512;-77
2023/12/17 11:04:52;;;;;;;;;;;;;;;8.79;100.00;103220.28;4932730;29;20051;-79
2023/12/17 11:07:21;;;;;;;29.25;12.43;;;;;;;8.80;100.00;103218.53;4862217;29;19930;-79
2023/12/17 11:10:12;;;;;;;36.08;14.40;;;;;;;8.77;100.00;103224.53;4919404;28;20051;-79
2023/12/17 11:12:40;;;;;;;19.67;14.00;;;;;;;8.76;100.00;103212.22;4928993;29;20062;-77
2023/12/17 11:15:08;;;;;;;31.95;16.70;;;;;;;8.74;100.00;103216.50;4931583;28;20059;-78
2023/12/17 11:17:36;;;;;;;32.38;17.70;;;;;;;8.73;100.00;103217.31;4890677;29;20043;-78
2023/12/17 11:20:06;;;;;;;26.52;17.73;;;;;;;8.72;100.00;103218.16;4926250;28;20055;-78